createdAt,value
2022-07-26T04:02:50.094Z,2.63
2022-07-26T04:05:16.779Z,2.92
2022-07-26T04:07:53.028Z,2.70
2022-07-26T04:10:20.884Z,2.40
2022-07-26T04:12:47.402Z,3.10
2022-07-26T04:15:16.091Z,3.17
2022-07-26T04:17:43.267Z,2.38
2022-07-26T04:20:24.795Z,2.42
2022-07-26T04:22:51.277Z,2.92
2022-07-26T04:25:18.778Z,2.50
2022-07-26T04:27:45.271Z,2.38
2022-07-26T04:30:15.035Z,2.53
2022-07-26T04:32:42.935Z,3.03
2022-07-26T04:35:10.792Z,2.40
2022-07-26T04:37:42.652Z,2.70
2022-07-26T04:40:10.318Z,2.65
2022-07-26T04:42:38.329Z,2.83
2022-07-26T04:45:08.376Z,3.15
2022-07-26T04:47:35.491Z,2.97
2022-07-26T04:50:03.948Z,2.95
2022-07-26T04:52:30.463Z,3.00
2022-07-26T04:54:56.911Z,3.28
2022-07-26T04:57:23.539Z,3.17
2022-07-26T05:00:03.336Z,3.08
2022-07-26T05:02:36.752Z,3.08
2022-07-26T05:05:04.999Z,2.72
2022-07-26T05:07:47.084Z,3.50
2022-07-26T05:10:15.624Z,2.63
2022-07-26T05:12:42.361Z,3.30
2022-07-26T05:15:13.675Z,3.20
2022-07-26T05:17:42.774Z,3.47
2022-07-26T05:20:11.366Z,3.13
2022-07-26T05:22:38.228Z,3.33
2022-07-26T05:25:06.385Z,2.85
2022-07-26T05:27:33.289Z,3.65
2022-07-26T05:29:59.835Z,2.90
2022-07-26T05:32:28.037Z,3.05
2022-07-26T05:34:54.603Z,3.30
2022-07-26T05:37:21.109Z,2.95
2022-07-26T05:39:47.589Z,3.10
2022-07-26T05:42:14.027Z,3.22
2022-07-26T05:44:42.668Z,3.10
2022-07-26T05:47:09.813Z,2.80
2022-07-26T05:49:40.507Z,3.17
2022-07-26T05:52:08.295Z,3.13
2022-07-26T05:54:35.145Z,2.92
2022-07-26T05:57:02.058Z,2.95
2022-07-26T05:59:28.946Z,2.95
2022-07-26T06:01:58.337Z,3.13
2022-07-26T06:04:26.716Z,3.20
2022-07-26T06:06:54.630Z,3.05
2022-07-26T06:09:22.277Z,3.17
2022-07-26T06:11:48.768Z,3.33
2022-07-26T06:14:15.439Z,3.28
2022-07-26T06:16:42.081Z,3.30
2022-07-26T06:19:08.649Z,3.53
2022-07-26T06:21:35.171Z,3.65
2022-07-26T06:24:01.618Z,3.25
2022-07-26T06:26:28.277Z,3.40
2022-07-26T06:28:54.847Z,3.25
2022-07-26T06:31:21.699Z,3.22
2022-07-26T06:33:48.207Z,3.30
2022-07-26T06:36:14.744Z,3.70
2022-07-26T06:38:41.267Z,3.60
2022-07-26T06:41:07.842Z,3.50
2022-07-26T06:43:34.374Z,3.60
2022-07-26T06:46:01.094Z,3.58
2022-07-26T06:48:27.780Z,3.80
2022-07-26T06:50:55.471Z,3.80
2022-07-26T06:53:21.939Z,3.67
2022-07-26T06:55:48.411Z,4.13
2022-07-26T06:58:14.897Z,3.38
2022-07-26T07:00:41.527Z,3.55
2022-07-26T07:03:08.212Z,2.65
2022-07-26T07:05:34.675Z,3.38
2022-07-26T07:08:01.162Z,3.67
2022-07-26T07:10:29.061Z,3.78
2022-07-26T07:12:56.056Z,2.30
2022-07-26T07:15:22.512Z,2.28
2022-07-26T07:17:49.009Z,2.00
2022-07-26T07:20:15.472Z,1.98
2022-07-26T07:22:41.940Z,2.08
2022-07-26T07:25:08.689Z,1.70
2022-07-26T07:27:35.159Z,1.95
2022-07-26T07:30:02.269Z,1.90
2022-07-26T07:32:30.861Z,2.28
2022-07-26T07:34:57.528Z,1.83
2022-07-26T07:37:24.080Z,1.92
2022-07-26T07:39:51.241Z,2.42
2022-07-26T07:42:19.200Z,2.10
2022-07-26T07:44:46.550Z,2.20
2022-07-26T07:47:14.074Z,2.15
2022-07-26T07:49:40.660Z,2.20
2022-07-26T07:52:07.134Z,2.25
2022-07-26T07:54:33.623Z,2.13
2022-07-26T07:57:00.091Z,2.45
2022-07-26T07:59:27.275Z,2.00
2022-07-26T08:01:55.462Z,2.00
2022-07-26T08:04:21.937Z,2.30
2022-07-26T08:06:51.407Z,2.00
2022-07-26T08:09:19.023Z,2.20
2022-07-26T08:11:45.702Z,2.10
2022-07-26T08:14:18.013Z,1.83
2022-07-26T08:16:44.763Z,1.80
2022-07-26T08:19:11.924Z,1.85
2022-07-26T08:21:38.995Z,1.70
2022-07-26T08:24:06.581Z,2.00
2022-07-26T08:26:33.108Z,1.77
2022-07-26T08:29:00.529Z,1.95
2022-07-26T08:31:30.493Z,1.70
2022-07-26T08:33:57.191Z,1.50
2022-07-26T08:36:28.220Z,1.30
2022-07-26T08:38:58.328Z,1.42
2022-07-26T08:41:24.819Z,1.40
2022-07-26T08:43:53.643Z,1.25
2022-07-26T08:46:26.477Z,1.45
2022-07-26T08:48:55.090Z,1.20
2022-07-26T08:51:24.081Z,0.93
2022-07-26T08:54:00.545Z,1.20
2022-07-26T08:56:30.437Z,1.20
2022-07-26T08:58:57.185Z,1.15
2022-07-26T09:01:23.853Z,1.13
2022-07-26T09:03:50.411Z,1.00
2022-07-26T09:06:20.085Z,1.00
2022-07-26T09:08:49.597Z,1.05
2022-07-26T09:11:30.447Z,0.73
2022-07-26T09:14:02.605Z,0.90
2022-07-26T09:16:30.211Z,1.52
2022-07-26T09:19:17.675Z,1.10
2022-07-26T09:21:44.903Z,0.70
2022-07-26T09:24:11.471Z,1.08
2022-07-26T09:26:38.650Z,1.05
2022-07-26T09:29:10.834Z,1.25
2022-07-26T09:31:39.512Z,1.20
2022-07-26T09:34:07.110Z,1.13
2022-07-26T09:36:49.556Z,1.15
2022-07-26T09:39:16.098Z,0.90
2022-07-26T09:41:42.700Z,1.13
2022-07-26T09:44:26.366Z,1.02
2022-07-26T09:46:53.925Z,1.33
2022-07-26T09:49:21.783Z,0.90
2022-07-26T09:51:53.662Z,0.80
2022-07-26T09:54:31.847Z,1.10
2022-07-26T09:56:58.657Z,0.85
2022-07-26T09:59:26.795Z,1.05
2022-07-26T10:01:56.304Z,1.00
2022-07-26T10:04:24.385Z,0.90
2022-07-26T10:06:52.021Z,1.25
2022-07-26T10:09:19.931Z,0.98
2022-07-26T10:11:54.793Z,0.95
2022-07-26T10:14:33.436Z,0.73
2022-07-26T10:17:01.587Z,0.82
2022-07-26T10:19:41.794Z,1.00
2022-07-26T10:22:26.021Z,0.98
2022-07-26T10:24:58.301Z,1.10
2022-07-26T10:27:38.913Z,1.10
2022-07-26T10:30:33.916Z,0.90
2022-07-26T10:33:02.601Z,1.10
2022-07-26T10:35:32.689Z,1.38
2022-07-26T10:38:01.564Z,1.00
2022-07-26T10:40:30.173Z,1.33
2022-07-26T10:43:39.093Z,1.15
2022-07-26T10:46:16.879Z,1.13
2022-07-26T10:49:04.174Z,1.00
2022-07-26T10:51:36.716Z,0.98
2022-07-26T10:54:09.691Z,0.80
2022-07-26T10:56:37.031Z,1.00
2022-07-26T10:59:05.505Z,1.10
2022-07-26T11:01:33.600Z,0.95
2022-07-26T11:04:00.681Z,1.05
2022-07-26T11:06:31.972Z,1.00
2022-07-26T11:08:58.767Z,1.23
2022-07-26T11:11:30.543Z,1.13
2022-07-26T11:14:09.094Z,1.23
2022-07-26T11:16:43.207Z,1.40
2022-07-26T11:19:29.207Z,1.02
2022-07-26T11:22:00.434Z,1.00
2022-07-26T11:24:28.439Z,1.13
2022-07-26T11:26:55.704Z,1.27
2022-07-26T11:29:38.938Z,0.95
2022-07-26T11:32:17.678Z,1.27
2022-07-26T11:34:45.425Z,1.27
2022-07-26T11:37:12.262Z,1.27
2022-07-26T11:39:38.874Z,1.30
2022-07-26T11:42:15.010Z,1.33
2022-07-26T11:44:45.984Z,1.13
2022-07-26T11:47:14.479Z,1.20
2022-07-26T11:49:52.482Z,1.15
2022-07-26T11:52:32.146Z,0.98
2022-07-26T11:54:59.221Z,1.08
2022-07-26T11:57:30.548Z,1.23
2022-07-26T11:59:58.617Z,1.20
2022-07-26T12:02:26.275Z,1.10
2022-07-26T12:05:14.364Z,1.20
2022-07-26T12:07:56.360Z,1.00
2022-07-26T12:10:23.038Z,1.25
2022-07-26T12:12:49.783Z,1.40
2022-07-26T12:15:16.418Z,1.67
2022-07-26T12:18:00.299Z,1.15
2022-07-26T12:20:28.172Z,1.20
2022-07-26T12:22:57.610Z,1.58
2022-07-26T12:25:29.014Z,1.38
2022-07-26T12:27:55.590Z,1.27
2022-07-26T12:30:22.422Z,1.63
2022-07-26T12:32:51.892Z,1.60
2022-07-26T12:35:29.447Z,1.30
2022-07-26T12:37:56.944Z,1.50
2022-07-26T12:40:25.700Z,1.50
2022-07-26T12:42:55.837Z,1.60
2022-07-26T12:45:29.540Z,1.55
2022-07-26T12:47:57.990Z,1.60
2022-07-26T12:50:27.914Z,1.83
2022-07-26T12:53:03.039Z,1.40
2022-07-26T12:55:29.773Z,1.80
2022-07-26T12:57:57.175Z,1.42
2022-07-26T13:00:23.984Z,2.15
2022-07-26T13:02:51.231Z,1.77
2022-07-26T13:05:17.789Z,1.90
2022-07-26T13:07:44.357Z,1.73
2022-07-26T13:12:57.610Z,1.75
2022-07-26T13:15:24.185Z,1.48
2022-07-26T13:18:03.201Z,1.80
2022-07-26T13:20:30.572Z,1.85
2022-07-26T13:22:57.118Z,2.20
2022-07-26T13:25:25.396Z,1.98
2022-07-26T13:27:55.476Z,2.10
2022-07-26T13:30:22.304Z,2.22
2022-07-26T13:32:48.965Z,1.92
2022-07-26T13:35:15.457Z,2.47
2022-07-26T13:37:41.919Z,2.08
2022-07-26T13:40:09.007Z,1.90
2022-07-26T13:42:37.986Z,2.50
2022-07-26T13:45:06.301Z,2.22
2022-07-26T13:47:32.763Z,2.30
2022-07-26T13:49:59.374Z,2.65
2022-07-26T13:52:25.883Z,2.70
2022-07-26T13:54:53.099Z,2.28
2022-07-26T13:57:19.561Z,2.28
2022-07-26T13:59:46.094Z,2.40
2022-07-26T14:02:12.724Z,2.13
2022-07-26T14:04:39.333Z,2.03
2022-07-26T14:07:05.790Z,2.05
2022-07-26T14:09:32.690Z,2.33
2022-07-26T14:11:59.267Z,1.88
2022-07-26T14:14:25.730Z,2.20
2022-07-26T14:16:52.266Z,2.50
2022-07-26T14:19:18.868Z,2.28
2022-07-26T14:21:47.260Z,2.40
2022-07-26T14:24:26.531Z,2.20
2022-07-26T14:26:56.857Z,2.45
2022-07-26T14:29:26.335Z,2.20
2022-07-26T14:31:53.188Z,2.13
2022-07-26T14:34:19.805Z,2.25
2022-07-26T14:36:46.366Z,2.50
2022-07-26T14:39:12.813Z,2.50
2022-07-26T14:41:39.534Z,1.92
2022-07-26T14:44:06.784Z,2.33
2022-07-26T14:46:33.474Z,2.00
2022-07-26T14:49:01.377Z,2.10
2022-07-26T14:51:28.051Z,2.30
2022-07-26T14:53:54.680Z,2.08
2022-07-26T14:56:21.678Z,2.40
2022-07-26T14:58:48.131Z,2.35
2022-07-26T15:01:14.710Z,1.88
2022-07-26T15:03:41.231Z,1.80
2022-07-26T15:06:07.740Z,1.67
2022-07-26T15:08:34.382Z,1.90
2022-07-26T15:11:00.899Z,2.10
2022-07-26T15:13:27.477Z,1.65
2022-07-26T15:15:54.013Z,2.05
2022-07-26T15:18:20.515Z,1.98
2022-07-26T15:20:47.232Z,2.10
2022-07-26T15:23:16.465Z,2.25
2022-07-26T15:25:43.100Z,1.90
2022-07-26T15:28:09.620Z,2.00
2022-07-26T15:30:37.244Z,2.13
2022-07-26T15:33:03.768Z,1.83
2022-07-26T15:35:30.291Z,2.30
2022-07-26T15:37:57.628Z,3.05
2022-07-26T15:40:24.625Z,2.60
2022-07-26T15:42:53.038Z,2.08
2022-07-26T15:45:22.584Z,1.73
2022-07-26T15:47:56.235Z,1.80
2022-07-26T15:50:26.130Z,1.98
2022-07-26T15:52:52.905Z,1.98
2022-07-26T15:55:20.663Z,2.10
2022-07-26T15:57:47.518Z,4.10
2022-07-26T16:00:15.238Z,7.30
2022-07-26T16:02:42.128Z,15.20
2022-07-26T16:05:10.286Z,4.15
2022-07-26T16:07:37.713Z,2.42
2022-07-26T16:10:04.993Z,2.22
2022-07-26T16:12:31.462Z,1.90
2022-07-26T16:14:57.906Z,2.00
2022-07-26T16:17:25.215Z,2.30
2022-07-26T16:19:52.893Z,1.92
2022-07-26T16:22:19.453Z,1.80
2022-07-26T16:24:46.093Z,1.90
2022-07-26T16:27:12.599Z,2.22
2022-07-26T16:29:39.230Z,1.88
2022-07-26T16:32:08.219Z,1.98
2022-07-26T16:34:34.935Z,1.55
2022-07-26T16:37:02.146Z,1.80
2022-07-26T16:39:28.895Z,2.05
2022-07-26T16:41:55.351Z,1.70
2022-07-26T16:44:23.992Z,2.35
2022-07-26T16:46:51.606Z,1.98
2022-07-26T16:49:18.209Z,2.03
2022-07-26T16:51:44.775Z,2.20
2022-07-26T16:54:11.378Z,2.42
2022-07-26T16:56:38.082Z,2.20
2022-07-26T16:59:08.645Z,2.30
2022-07-26T17:01:36.843Z,2.33
2022-07-26T17:04:03.422Z,1.75
2022-07-26T17:06:29.859Z,2.20
2022-07-26T17:08:56.354Z,1.80
2022-07-26T17:11:22.906Z,2.30
2022-07-26T17:13:49.607Z,1.95
2022-07-26T17:16:16.164Z,1.83
2022-07-26T17:18:50.751Z,2.10
2022-07-26T17:21:17.358Z,1.95
2022-07-26T17:23:44.053Z,2.05
2022-07-26T17:26:10.578Z,2.17
2022-07-26T17:28:37.114Z,2.10
2022-07-26T17:31:03.640Z,2.13
2022-07-26T17:33:30.270Z,2.20
2022-07-26T17:35:56.791Z,2.33
2022-07-26T17:38:28.787Z,2.72
2022-07-26T17:40:57.026Z,1.90
2022-07-26T17:43:23.562Z,2.05
2022-07-26T17:45:50.410Z,1.88
2022-07-26T17:48:16.896Z,2.03
2022-07-26T17:50:43.362Z,1.73
2022-07-26T17:53:09.882Z,1.77
2022-07-26T17:55:36.317Z,2.03
2022-07-26T17:58:02.851Z,2.38
2022-07-26T18:00:29.665Z,1.80
2022-07-26T18:02:57.206Z,1.77
2022-07-26T18:05:30.160Z,2.20
2022-07-26T18:07:59.991Z,2.00
2022-07-26T18:10:27.605Z,1.95
2022-07-26T18:12:54.777Z,1.77
2022-07-26T18:15:21.909Z,2.00
2022-07-26T18:17:48.552Z,2.03
2022-07-26T18:20:15.169Z,2.30
2022-07-26T18:22:41.646Z,2.00
2022-07-26T18:25:12.685Z,1.70
2022-07-26T18:27:39.665Z,1.80
2022-07-26T18:30:07.179Z,1.83
2022-07-26T18:32:34.814Z,1.67
2022-07-26T18:35:01.408Z,1.88
2022-07-26T18:37:27.963Z,1.92
2022-07-26T18:39:57.844Z,2.00
2022-07-26T18:42:25.020Z,1.58
2022-07-26T18:44:51.705Z,1.52
2022-07-26T18:47:18.210Z,1.77
2022-07-26T18:49:44.655Z,1.50
2022-07-26T18:52:11.504Z,1.58
2022-07-26T18:54:37.939Z,1.60
2022-07-26T18:57:04.790Z,1.73
2022-07-26T18:59:31.671Z,1.48
2022-07-26T19:01:59.789Z,1.95
2022-07-26T19:04:26.817Z,1.70
2022-07-26T19:06:53.423Z,1.83
2022-07-26T19:09:20.090Z,1.50
2022-07-26T19:11:46.698Z,1.70
2022-07-26T19:14:13.355Z,1.90
2022-07-26T19:16:39.981Z,1.90
2022-07-26T19:19:06.438Z,2.20
2022-07-26T19:21:32.962Z,1.70
2022-07-26T19:23:59.467Z,1.38
2022-07-26T19:26:27.324Z,1.67
2022-07-26T19:28:54.025Z,1.40
2022-07-26T19:31:21.743Z,1.58
2022-07-26T19:33:48.319Z,1.60
2022-07-26T19:36:17.365Z,1.58
2022-07-26T19:38:52.261Z,1.52
2022-07-26T19:41:19.902Z,1.63
2022-07-26T19:43:46.418Z,1.48
2022-07-26T19:46:13.150Z,1.75
2022-07-26T19:48:39.920Z,1.40
2022-07-26T19:51:06.468Z,1.95
2022-07-26T19:53:32.952Z,1.40
2022-07-26T19:55:59.414Z,1.80
2022-07-26T19:58:26.222Z,1.60
2022-07-26T20:00:53.581Z,1.85
2022-07-26T20:03:20.039Z,1.48
2022-07-26T20:05:46.576Z,1.35
2022-07-26T20:08:13.042Z,1.63
2022-07-26T20:10:39.698Z,1.63
2022-07-26T20:13:06.278Z,1.60
2022-07-26T20:15:33.077Z,1.45
2022-07-26T20:17:59.641Z,1.90
2022-07-26T20:20:26.206Z,1.40
2022-07-26T20:22:52.711Z,1.70
2022-07-26T20:25:21.576Z,1.63
2022-07-26T20:27:51.222Z,1.20
2022-07-26T20:30:18.266Z,1.77
2022-07-26T20:32:44.806Z,1.67
2022-07-26T20:35:12.114Z,1.80
2022-07-26T20:37:38.745Z,1.40
2022-07-26T20:40:08.358Z,1.50
2022-07-26T20:42:36.575Z,1.48
2022-07-26T20:45:11.430Z,1.45
2022-07-26T20:47:43.052Z,1.48
2022-07-26T20:50:14.152Z,1.77
2022-07-26T20:52:40.625Z,1.52
2022-07-26T20:55:07.987Z,1.70
2022-07-26T20:57:34.722Z,1.80
2022-07-26T21:00:01.255Z,1.83
2022-07-26T21:02:27.938Z,2.10
2022-07-26T21:04:54.587Z,1.70
2022-07-26T21:07:21.037Z,1.73
2022-07-26T21:09:47.712Z,1.90
2022-07-26T21:12:14.243Z,2.00
2022-07-26T21:14:40.752Z,1.95
2022-07-26T21:17:11.594Z,1.60
2022-07-26T21:19:39.320Z,1.42
2022-07-26T21:22:05.981Z,1.30
2022-07-26T21:24:32.780Z,1.25
2022-07-26T21:26:59.242Z,1.60
2022-07-26T21:29:25.819Z,1.90
2022-07-26T21:31:52.340Z,1.38
2022-07-26T21:34:19.221Z,1.38
2022-07-26T21:36:46.218Z,1.35
2022-07-26T21:39:13.711Z,1.95
2022-07-26T21:41:40.477Z,1.45
2022-07-26T21:44:06.963Z,1.40
2022-07-26T21:46:33.511Z,1.77
2022-07-26T21:49:00.108Z,1.48
2022-07-26T21:51:26.778Z,1.58
2022-07-26T21:53:53.304Z,1.58
2022-07-26T21:56:19.769Z,1.50
2022-07-26T21:58:46.856Z,1.48
